Time;durP1;ratioP1;P1;durP2;ratioP2;P2;SDS_P1;SDS_P2;PMS_P1;PMS_P2;Temp;Humidity;BMP_temperature;BMP_pressure;BME280_temperature;BME280_humidity;BME280_pressure;Samples;Min_cycle;Max_cycle;Signal;HPM_P1;HPM_P2
2021/07/24 00:00:18;;;;;;;13.67;3.00;;;;;;;14.85;71.27;100454.23;1714528;82;21226;-68
2021/07/24 00:02:50;;;;;;;9.88;3.47;;;;;;;14.84;71.30;100449.13;1719787;81;21357;-68
2021/07/24 00:05:24;;;;;;;11.30;3.45;;;;;;;14.81;71.34;100454.23;1716296;82;21279;-68
2021/07/24 00:07:57;;;;;;;8.75;3.02;;;;;;;14.79;71.35;100456.20;1714855;82;21334;-69
2021/07/24 00:10:30;;;;;;;8.48;3.15;;;;;;;14.77;71.28;100457.34;1718687;82;21282;-68
2021/07/24 00:13:03;;;;;;;;;;;;;;;14.74;71.22;100455.02;1715508;83;21307;-69
2021/07/24 00:15:37;;;;;;;10.65;3.02;;;;;;;14.73;71.32;100454.70;1717355;82;20194;-68
2021/07/24 00:18:11;;;;;;;6.65;2.62;;;;;;;14.70;71.44;100462.91;1717442;82;21211;-69
2021/07/24 00:20:44;;;;;;;11.67;3.27;;;;;;;14.68;71.41;100452.53;1715001;83;21345;-69
2021/07/24 00:23:17;;;;;;;10.53;2.65;;;;;;;14.66;71.33;100457.63;1730515;82;21338;-69
2021/07/24 00:25:50;;;;;;;10.53;3.00;;;;;;;14.61;71.36;100456.78;1704710;82;21253;-68
2021/07/24 00:28:24;;;;;;;12.20;3.17;;;;;;;14.60;71.45;100452.97;1712830;82;21274;-68
2021/07/24 00:30:57;;;;;;;5.92;2.60;;;;;;;14.58;71.49;100454.45;1714964;81;21352;-68
2021/07/24 00:33:32;;;;;;;13.90;3.47;;;;;;;14.59;71.52;100457.92;1716206;82;21172;-68
2021/07/24 00:36:05;;;;;;;11.00;2.53;;;;;;;14.57;71.42;100451.95;1719658;81;21192;-69
2021/07/24 00:38:40;;;;;;;10.00;3.23;;;;;;;14.53;71.23;100459.36;1713171;83;21343;-68
2021/07/24 00:41:39;;;;;;;7.03;2.30;;;;;;;14.48;71.18;100460.80;1701054;82;21282;-68
2021/07/24 00:44:12;;;;;;;9.78;2.70;;;;;;;14.43;71.26;100465.71;1722029;82;21278;-68
2021/07/24 00:46:45;;;;;;;14.10;2.67;;;;;;;14.39;71.33;100464.37;1716378;82;21220;-69
2021/07/24 00:49:18;;;;;;;;;;;;;;;14.37;71.33;100461.91;1715163;81;21327;-69
2021/07/24 00:51:55;;;;;;;7.53;2.62;;;;;;;14.34;71.34;100464.84;1716611;82;20652;-69
2021/07/24 00:54:31;;;;;;;9.08;2.40;;;;;;;14.28;71.43;100469.88;1720991;82;21327;-69
2021/07/24 00:57:05;;;;;;;11.30;2.40;;;;;;;14.23;71.45;100470.34;1723781;82;21350;-69
2021/07/24 00:59:40;;;;;;;8.13;2.45;;;;;;;14.19;71.54;100474.25;1717710;83;21286;-69
2021/07/24 01:02:14;;;;;;;7.65;2.87;;;;;;;14.14;71.55;100474.71;1716418;82;21205;-69
2021/07/24 01:04:47;;;;;;;12.70;2.98;;;;;;;14.11;71.51;100480.79;1724676;82;21326;-68
2021/07/24 01:07:21;;;;;;;13.62;2.85;;;;;;;14.05;71.38;100475.63;1714859;82;21338;-69
2021/07/24 01:09:58;;;;;;;7.35;2.22;;;;;;;13.99;71.55;100480.20;1712824;81;21691;-69
2021/07/24 01:12:33;;;;;;;7.75;3.62;;;;;;;13.98;71.66;100475.08;1706079;82;21146;-69
2021/07/24 01:15:09;;;;;;;7.25;2.67;;;;;;;13.96;71.62;100480.98;1703740;82;21260;-69
2021/07/24 01:17:42;;;;;;;13.85;3.12;;;;;;;13.94;71.56;100479.00;1717668;82;21287;-69
2021/07/24 01:20:17;;;;;;;8.25;3.25;;;;;;;13.90;71.43;100473.72;1722184;82;21299;-69
2021/07/24 01:22:51;;;;;;;15.05;3.72;;;;;;;13.88;71.45;100476.48;1714621;81;21320;-69
2021/07/24 01:25:24;;;;;;;;;;;;;;;13.86;71.48;100475.80;1727904;82;21280;-69
2021/07/24 01:27:57;;;;;;;6.05;2.65;;;;;;;13.83;71.65;100478.73;1717282;81;20238;-69
2021/07/24 01:30:31;;;;;;;12.70;3.55;;;;;;;13.80;71.75;100480.86;1712046;82;21357;-69
2021/07/24 01:33:06;;;;;;;10.05;3.15;;;;;;;13.80;71.73;100480.86;1712726;82;21349;-70
2021/07/24 01:35:48;;;;;;;9.38;3.20;;;;;;;13.78;71.68;100477.04;1713846;82;21814;-69
2021/07/24 01:38:21;;;;;;;13.30;3.42;;;;;;;13.76;71.55;100482.95;1720112;82;21246;-69
2021/07/24 01:40:56;;;;;;;10.50;3.20;;;;;;;13.72;71.57;100482.92;1714776;82;21269;-68
2021/07/24 01:43:29;;;;;;;15.53;2.92;;;;;;;13.71;71.63;100481.25;1722827;81;21196;-69
2021/07/24 01:46:03;;;;;;;7.45;2.87;;;;;;;13.72;71.58;100484.72;1722710;82;21231;-68
2021/07/24 01:48:50;;;;;;;7.15;3.33;;;;;;;13.70;71.46;100484.05;1711703;81;21219;-68
2021/07/24 01:54:08;;;;;;;9.03;3.50;;;;;;;13.66;71.38;100486.14;1712953;82;21296;-68
2021/07/24 01:56:42;;;;;;;11.83;3.33;;;;;;;13.65;71.39;100478.41;1720932;82;21310;-69
2021/07/24 01:59:15;;;;;;;11.38;3.65;;;;;;;13.67;71.43;100490.44;1717939;82;21283;-69
2021/07/24 02:01:50;;;;;;;;;;;;;;;13.68;71.22;100490.78;1719689;82;21299;-69
2021/07/24 02:04:23;;;;;;;;;;;;;;;13.67;71.20;100489.12;1724088;81;20195;-69
2021/07/24 02:07:00;;;;;;;11.45;3.40;;;;;;;13.65;71.14;100491.08;1719005;81;20247;-68
2021/07/24 02:09:52;;;;;;;10.10;3.62;;;;;;;13.64;71.16;100493.84;1718698;82;21288;-68
2021/07/24 02:12:26;;;;;;;15.28;3.52;;;;;;;13.62;70.93;100491.84;1721225;82;21206;-68
2021/07/24 02:15:00;;;;;;;15.23;3.33;;;;;;;13.60;70.91;100493.33;1715799;82;21300;-70
2021/07/24 02:17:37;;;;;;;9.15;3.20;;;;;;;13.60;70.98;100495.95;1719413;81;21274;-70
2021/07/24 02:20:11;;;;;;;13.68;3.70;;;;;;;13.66;71.20;100495.86;1704000;82;21725;-70
2021/07/24 02:22:45;;;;;;;12.98;3.80;;;;;;;13.72;71.16;100500.50;1719203;82;21813;-70
2021/07/24 02:25:19;;;;;;;14.38;4.10;;;;;;;13.78;70.95;100498.09;1721994;82;21180;-70
2021/07/24 02:27:53;;;;;;;7.25;3.35;;;;;;;13.86;70.86;100499.98;1711312;82;21286;-68
2021/07/24 02:30:26;;;;;;;7.37;3.17;;;;;;;13.93;70.67;100503.66;1723243;81;21805;-68
2021/07/24 02:32:59;;;;;;;11.55;3.60;;;;;;;14.01;70.48;100510.31;1715935;82;21183;-68
2021/07/24 02:35:32;;;;;;;10.75;3.90;;;;;;;14.08;70.25;100512.20;1713377;82;21278;-68
2021/07/24 02:38:22;;;;;;;8.43;3.58;;;;;;;14.16;70.02;100512.75;1712199;82;21274;-68
2021/07/24 02:40:56;;;;;;;9.75;3.83;;;;;;;14.28;69.86;100513.33;1713187;83;21290;-69
2021/07/24 02:43:29;;;;;;;11.17;3.40;;;;;;;14.41;69.62;100515.09;1715161;82;21213;-69
2021/07/24 02:46:02;;;;;;;6.62;3.42;;;;;;;14.53;69.52;100512.05;1717944;81;21223;-69
2021/07/24 02:48:36;;;;;;;7.90;2.83;;;;;;;14.68;69.21;100507.87;1719535;82;21314;-69
2021/07/24 02:51:26;;;;;;;10.18;4.58;;;;;;;14.81;68.87;100514.84;1716759;82;21339;-70
2021/07/24 02:54:00;;;;;;;21.87;8.90;;;;;;;14.94;68.64;100509.16;1719011;81;21347;-70
2021/07/24 02:56:34;;;;;;;43.17;16.27;;;;;;;15.06;68.50;100517.12;1714661;82;21180;-69
2021/07/24 02:59:08;;;;;;;65.28;30.17;;;;;;;15.18;68.29;100509.75;1714904;82;21190;-69
2021/07/24 03:01:43;;;;;;;25.25;8.85;;;;;;;15.30;68.27;100514.58;1721864;82;21271;-69
2021/07/24 03:04:17;;;;;;;14.65;4.70;;;;;;;15.42;68.04;100518.58;1720182;82;21346;-69
2021/07/24 03:06:50;;;;;;;16.35;5.92;;;;;;;15.56;67.70;100521.59;1719783;82;21703;-68
2021/07/24 03:09:23;;;;;;;19.82;5.83;;;;;;;15.68;67.24;100524.27;1720961;82;21334;-68
2021/07/24 03:11:56;;;;;;;12.13;6.03;;;;;;;15.95;66.31;100523.98;1717775;82;21340;-69
2021/07/24 03:14:29;;;;;;;16.80;7.05;;;;;;;15.95;66.31;100523.98;1717673;83;21749;-69
2021/07/24 03:17:03;;;;;;;28.23;11.65;;;;;;;16.08;65.92;100529.09;1718621;81;21180;-69
2021/07/24 03:19:35;;;;;;;45.92;14.25;;;;;;;16.20;65.77;100528.27;1720159;81;21294;-69
2021/07/24 03:22:08;;;;;;;37.93;15.35;;;;;;;16.31;65.56;100531.89;1698021;82;21323;-70
2021/07/24 03:24:42;;;;;;;41.45;17.17;;;;;;;16.47;65.33;100530.58;1719445;82;21278;-69
2021/07/24 03:27:19;;;;;;;48.83;20.07;;;;;;;16.62;65.05;100536.84;1718535;82;21215;-70
2021/07/24 03:29:53;;;;;;;54.15;23.12;;;;;;;16.77;64.73;100530.37;1718940;82;21283;-69
2021/07/24 03:32:25;;;;;;;53.65;22.05;;;;;;;16.91;64.33;100527.02;1734235;82;21334;-69
2021/07/24 03:34:58;;;;;;;71.92;31.12;;;;;;;17.06;64.10;100528.46;1713331;82;21825;-69
2021/07/24 03:37:31;;;;;;;68.62;26.68;;;;;;;17.32;63.90;100525.05;1715871;82;21227;-69
2021/07/24 03:40:05;;;;;;;;;;;;;;;17.70;63.22;100531.31;1719081;81;21160;-69
2021/07/24 03:42:38;;;;;;;84.05;34.25;;;;;;;18.11;62.42;100526.06;1719649;82;20277;-70
2021/07/24 03:45:12;;;;;;;61.60;25.88;;;;;;;18.54;61.74;100528.03;1706143;82;21165;-69
2021/07/24 03:47:45;;;;;;;51.92;22.65;;;;;;;18.91;60.81;100521.02;1715790;82;21310;-69
2021/07/24 03:50:18;;;;;;;42.30;18.55;;;;;;;19.32;59.84;100521.65;1715083;81;21726;-69
2021/07/24 03:52:51;;;;;;;28.23;13.18;;;;;;;19.85;58.74;100526.25;1720103;82;21326;-69
2021/07/24 03:55:24;;;;;;;29.52;9.40;;;;;;;20.41;57.61;100531.19;1714457;82;21196;-68
2021/07/24 03:57:57;;;;;;;21.02;7.53;;;;;;;20.95;55.87;100527.34;1717828;81;21299;-68
2021/07/24 04:00:39;;;;;;;24.55;7.47;;;;;;;21.40;54.48;100533.42;1718511;82;21235;-68
2021/07/24 04:03:06;;;;;;;19.85;6.78;;;;;;;21.85;53.18;100530.64;1718313;82;21207;-69
2021/07/24 04:05:44;;;;;;;18.05;6.35;;;;;;;22.33;51.92;100532.09;1714048;81;21209;-69
2021/07/24 04:08:17;;;;;;;18.65;5.60;;;;;;;22.76;50.68;100535.98;1718979;82;21196;-69
2021/07/24 04:10:50;;;;;;;;;;;;;;;23.30;49.54;100531.64;1732374;81;21335;-69
2021/07/24 04:13:22;;;;;;;13.50;4.92;;;;;;;23.84;48.11;100531.68;1717544;82;20235;-69
2021/07/24 04:15:55;;;;;;;18.55;5.80;;;;;;;24.37;46.85;100532.97;1713726;81;21214;-69
2021/07/24 04:18:31;;;;;;;13.32;5.45;;;;;;;24.96;45.45;100539.66;1719079;82;21188;-70
2021/07/24 04:21:03;;;;;;;12.68;5.83;;;;;;;25.95;42.69;100534.67;1720822;82;21302;-67
2021/07/24 04:23:36;;;;;;;17.15;5.67;;;;;;;25.95;42.69;100534.67;1711691;82;21365;-67
2021/07/24 04:26:11;;;;;;;16.17;6.35;;;;;;;26.33;41.78;100545.05;1716601;82;21299;-68
2021/07/24 04:28:44;;;;;;;14.73;6.83;;;;;;;26.69;40.99;100547.52;1713164;82;21286;-68
2021/07/24 04:31:18;;;;;;;18.23;8.28;;;;;;;27.12;40.01;100542.60;1733720;81;21346;-70
2021/07/24 04:33:51;;;;;;;19.67;9.45;;;;;;;27.58;39.14;100542.20;1713689;82;21294;-68
2021/07/24 04:36:24;;;;;;;19.60;8.93;;;;;;;28.07;38.26;100543.38;1715274;82;21291;-69
2021/07/24 04:38:58;;;;;;;26.73;8.65;;;;;;;28.51;37.55;100539.80;1719769;82;21167;-69
2021/07/24 04:41:30;;;;;;;;;;;;;;;28.94;36.50;100539.92;1719876;82;21332;-69
2021/07/24 04:44:04;;;;;;;29.57;8.20;;;;;;;29.43;35.90;100542.70;1717341;81;20612;-69
2021/07/24 04:46:37;;;;;;;19.50;7.05;;;;;;;29.84;35.10;100536.17;1714780;82;21406;-69
2021/07/24 04:49:10;;;;;;;21.15;6.95;;;;;;;30.43;34.10;100541.55;1725917;82;21234;-69
2021/07/24 04:51:43;;;;;;;17.20;5.45;;;;;;;31.01;32.78;100541.94;1719303;82;21291;-69
2021/07/24 04:54:17;;;;;;;13.40;5.08;;;;;;;31.49;31.44;100538.91;1721394;81;21347;-69
2021/07/24 04:56:50;;;;;;;15.38;5.25;;;;;;;31.90;30.38;100533.86;1719259;82;21195;-69
2021/07/24 04:59:23;;;;;;;12.90;4.70;;;;;;;32.35;29.54;100533.08;1719598;82;21271;-69
2021/07/24 05:01:57;;;;;;;9.30;4.00;;;;;;;32.88;28.71;100535.72;1717239;82;21286;-69
2021/07/24 05:04:31;;;;;;;8.35;4.40;;;;;;;33.34;27.97;100536.92;1721539;82;21196;-70
2021/07/24 05:07:05;;;;;;;10.60;3.70;;;;;;;33.79;27.49;100537.50;1721223;81;21285;-70
2021/07/24 05:09:38;;;;;;;13.85;3.70;;;;;;;34.26;26.76;100540.13;1713373;83;21290;-71
2021/07/24 05:12:12;;;;;;;14.83;4.33;;;;;;;34.71;26.20;100542.98;1716553;82;21302;-70
2021/07/24 05:14:45;;;;;;;11.35;3.65;;;;;;;35.19;25.42;100545.45;1719130;82;21339;-70
2021/07/24 05:17:19;;;;;;;7.20;3.00;;;;;;;35.60;25.04;100552.55;1713327;82;21362;-70
2021/07/24 05:19:52;;;;;;;8.10;2.72;;;;;;;36.07;24.46;100546.13;1714994;82;21388;-70
2021/07/24 05:22:26;;;;;;;6.25;2.50;;;;;;;36.43;24.16;100549.05;1713347;82;21803;-70
2021/07/24 05:25:00;;;;;;;7.33;3.27;;;;;;;36.80;23.81;100552.23;1717524;82;21286;-70
2021/07/24 05:27:33;;;;;;;6.70;2.90;;;;;;;37.19;23.34;100555.27;1717542;82;21271;-69
2021/07/24 05:30:07;;;;;;;5.17;2.42;;;;;;;37.49;22.92;100555.21;1712649;81;21194;-69
2021/07/24 05:32:46;;;;;;;5.87;2.00;;;;;;;37.81;22.30;100555.00;1714453;82;21775;-70
2021/07/24 05:35:15;;;;;;;6.90;2.08;;;;;;;38.13;21.79;100553.44;1727156;82;21291;-69
2021/07/24 05:37:48;;;;;;;5.97;2.47;;;;;;;38.41;21.46;100550.82;1712717;81;21294;-69
2021/07/24 05:40:21;;;;;;;7.92;2.00;;;;;;;38.60;21.19;100545.70;1717230;82;21294;-69
2021/07/24 05:42:57;;;;;;;8.25;2.35;;;;;;;38.82;20.89;100550.56;1714667;82;21287;-70
2021/07/24 05:45:30;;;;;;;7.35;1.92;;;;;;;39.02;20.43;100549.19;1701148;81;21194;-70
2021/07/24 05:48:03;;;;;;;4.83;2.10;;;;;;;39.17;20.48;100550.70;1717047;82;21323;-69
2021/07/24 05:50:36;;;;;;;4.15;1.72;;;;;;;39.38;20.12;100553.89;1718903;82;21351;-69
2021/07/24 05:53:09;;;;;;;4.50;1.98;;;;;;;39.70;20.01;100551.27;1714752;82;21282;-69
2021/07/24 05:55:42;;;;;;;8.20;2.37;;;;;;;40.06;19.45;100552.31;1711916;82;21703;-69
2021/07/24 05:58:15;;;;;;;4.90;2.05;;;;;;;40.26;19.19;100549.72;1712635;82;21334;-69
2021/07/24 06:00:47;;;;;;;5.08;2.02;;;;;;;40.58;19.05;100540.70;1716820;82;21183;-69
2021/07/24 06:03:20;;;;;;;7.65;2.27;;;;;;;40.81;18.81;100553.02;1714410;82;21346;-69
2021/07/24 06:05:53;;;;;;;10.10;2.10;;;;;;;40.93;18.39;100545.73;1714541;82;21283;-69
2021/07/24 06:08:26;;;;;;;13.58;2.27;;;;;;;41.02;18.37;100544.30;1724681;82;21335;-69
2021/07/24 06:11:02;;;;;;;5.83;1.95;;;;;;;41.23;18.26;100542.95;1719572;82;21214;-69
2021/07/24 06:13:37;;;;;;;6.97;1.90;;;;;;;41.47;18.00;100541.76;1718743;82;21181;-69
2021/07/24 06:16:13;;;;;;;4.53;1.82;;;;;;;41.74;17.65;100546.75;1719979;81;21746;-69
2021/07/24 06:18:46;;;;;;;6.67;2.35;;;;;;;41.91;17.36;100548.55;1732706;81;21331;-69
2021/07/24 06:21:19;;;;;;;8.05;2.20;;;;;;;42.10;17.27;100551.63;1745669;81;21282;-69
2021/07/24 06:23:52;;;;;;;4.78;1.62;;;;;;;42.28;17.19;100545.37;1740504;81;21263;-69
2021/07/24 06:26:25;;;;;;;8.43;2.10;;;;;;;42.52;16.73;100543.48;1740712;81;21331;-69
2021/07/24 06:28:58;;;;;;;3.55;1.55;;;;;;;42.72;16.44;100543.16;1740916;81;21283;-69
2021/07/24 06:31:31;;;;;;;8.23;2.30;;;;;;;42.83;16.49;100545.67;1731435;81;21751;-69
2021/07/24 06:34:04;;;;;;;9.10;1.92;;;;;;;42.93;16.51;100546.63;1747961;81;21180;-70
2021/07/24 06:36:39;;;;;;;7.25;1.90;;;;;;;43.09;16.24;100544.77;1744627;81;21275;-69
2021/07/24 06:39:12;;;;;;;6.28;1.60;;;;;;;43.36;16.12;100545.45;1740294;81;21843;-69
2021/07/24 06:41:45;;;;;;;9.20;2.00;;;;;;;43.57;15.74;100545.87;1727306;81;21213;-69
2021/07/24 06:44:18;;;;;;;4.05;1.67;;;;;;;43.66;15.58;100552.05;1732563;81;21815;-69
2021/07/24 06:46:52;;;;;;;3.12;1.60;;;;;;;43.70;15.48;100546.08;1749637;81;21248;-69
2021/07/24 06:49:25;;;;;;;8.15;2.17;;;;;;;43.93;15.27;100549.88;1735515;81;21176;-69
2021/07/24 06:51:58;;;;;;;7.65;1.77;;;;;;;44.22;14.71;100546.77;1737353;81;21278;-69
2021/07/24 06:54:30;;;;;;;6.12;1.55;;;;;;;44.37;14.49;100546.56;1750950;81;21279;-69
2021/07/24 06:57:04;;;;;;;4.55;1.75;;;;;;;44.34;14.36;100545.31;1745582;81;21184;-69
2021/07/24 06:59:37;;;;;;;4.30;1.82;;;;;;;44.19;14.58;100542.76;1751131;82;21261;-69
2021/07/24 07:02:10;;;;;;;5.28;1.70;;;;;;;44.04;14.38;100545.47;1740519;81;21275;-69
2021/07/24 07:04:43;;;;;;;3.00;1.52;;;;;;;44.09;14.43;100545.25;1735530;81;21311;-69
2021/07/24 07:07:19;;;;;;;1.85;1.20;;;;;;;44.32;14.18;100550.39;1740298;81;21288;-69
2021/07/24 07:09:51;;;;;;;3.67;1.37;;;;;;;44.64;13.74;100546.50;1740167;81;21830;-69
2021/07/24 07:12:24;;;;;;;3.15;1.50;;;;;;;45.10;13.12;100543.48;1718872;82;21291;-69
2021/07/24 07:14:59;;;;;;;7.50;1.67;;;;;;;45.51;13.12;100544.00;1750692;81;21267;-68
2021/07/24 07:17:31;;;;;;;4.08;1.50;;;;;;;45.76;12.91;100548.13;1746017;81;21292;-67
2021/07/24 07:20:10;;;;;;;4.70;1.45;;;;;;;46.09;12.50;100545.05;1725450;81;21275;-69
2021/07/24 07:22:43;;;;;;;9.08;1.60;;;;;;;46.37;12.30;100542.02;1723367;81;21192;-67
2021/07/24 07:25:16;;;;;;;8.23;1.50;;;;;;;46.58;11.91;100547.10;1740446;81;21243;-67
2021/07/24 07:27:49;;;;;;;3.83;1.70;;;;;;;46.73;11.87;100545.63;1750938;82;21177;-69
2021/07/24 07:30:23;;;;;;;6.47;1.80;;;;;;;46.99;11.55;100544.81;1750728;82;21341;-67
2021/07/24 07:32:56;;;;;;;2.70;1.65;;;;;;;47.22;11.40;100549.72;1742830;81;21153;-67
2021/07/24 07:35:30;;;;;;;2.60;1.52;;;;;;;47.36;11.31;100551.30;1734556;81;21339;-67
2021/07/24 07:38:03;;;;;;;3.58;1.72;;;;;;;47.54;11.25;100550.19;1740338;81;21220;-68
2021/07/24 07:40:40;;;;;;;3.62;1.90;;;;;;;47.76;10.87;100551.23;1727126;81;21306;-67
2021/07/24 07:43:14;;;;;;;6.03;1.70;;;;;;;47.99;10.59;100543.59;1721536;81;21323;-68
2021/07/24 07:45:46;;;;;;;4.58;1.70;;;;;;;48.09;10.53;100547.06;1735406;80;21319;-67
2021/07/24 07:48:19;;;;;;;7.10;1.87;;;;;;;48.18;10.79;100546.80;1720409;81;21814;-68
2021/07/24 07:50:53;;;;;;;4.00;1.80;;;;;;;48.18;10.60;100542.02;1737800;81;21818;-67
2021/07/24 07:53:25;;;;;;;3.70;1.80;;;;;;;48.13;10.61;100549.89;1742352;81;21822;-68
2021/07/24 07:55:58;;;;;;;3.02;1.90;;;;;;;48.03;10.62;100544.44;1740070;81;21315;-67
2021/07/24 07:58:32;;;;;;;5.75;1.92;;;;;;;47.88;10.68;100549.04;1745784;81;21283;-67
2021/07/24 08:01:11;;;;;;;3.90;1.72;;;;;;;47.65;11.12;100544.16;1750927;82;21279;-68
2021/07/24 08:03:44;;;;;;;2.45;1.85;;;;;;;47.55;10.99;100546.83;1746300;80;21874;-67
2021/07/24 08:06:18;;;;;;;5.75;1.42;;;;;;;47.42;10.81;100537.94;1722234;81;21184;-68
2021/07/24 08:08:51;;;;;;;3.22;1.70;;;;;;;47.31;10.95;100540.56;1750997;82;21314;-67
2021/07/24 08:11:25;;;;;;;6.97;2.00;;;;;;;47.20;11.32;100535.45;1751007;81;21727;-67
2021/07/24 08:14:00;;;;;;;3.45;2.02;;;;;;;47.17;11.29;100538.95;1750739;81;21172;-67
2021/07/24 08:16:33;;;;;;;3.15;1.70;;;;;;;46.98;11.64;100541.85;1751074;80;21362;-67
2021/07/24 08:19:06;;;;;;;8.10;1.77;;;;;;;46.94;11.71;100536.82;1751013;81;21184;-68
2021/07/24 08:21:40;;;;;;;3.05;1.60;;;;;;;46.61;11.79;100537.48;1750703;80;21790;-66
2021/07/24 08:24:14;;;;;;;7.28;1.65;;;;;;;46.00;12.04;100536.77;1750704;81;21220;-67
2021/07/24 08:26:47;;;;;;;7.95;1.67;;;;;;;45.30;12.66;100535.48;1750972;82;21283;-68
2021/07/24 08:29:21;;;;;;;3.60;1.47;;;;;;;44.94;12.78;100537.77;1751103;82;21778;-67
2021/07/24 08:31:54;;;;;;;2.80;1.50;;;;;;;44.92;12.69;100542.86;1750436;81;21707;-67
2021/07/24 08:34:27;;;;;;;2.47;1.37;;;;;;;45.10;12.55;100539.91;1720414;81;21315;-67
2021/07/24 08:37:00;;;;;;;2.35;1.52;;;;;;;45.21;12.42;100543.73;1734753;81;21220;-67
2021/07/24 08:39:35;;;;;;;3.17;1.32;;;;;;;45.24;12.26;100541.06;1723616;82;21235;-67
2021/07/24 08:42:08;;;;;;;3.10;1.62;;;;;;;45.31;12.07;100536.30;1726244;80;21343;-67
2021/07/24 08:44:41;;;;;;;2.60;1.50;;;;;;;45.29;12.05;100526.96;1730530;80;21370;-67
2021/07/24 08:47:14;;;;;;;6.45;1.60;;;;;;;45.17;12.25;100530.39;1750887;82;21327;-67
2021/07/24 08:49:47;;;;;;;5.83;1.77;;;;;;;45.14;12.66;100534.71;1750663;81;21303;-67
2021/07/24 08:52:21;;;;;;;4.40;1.67;;;;;;;45.04;12.63;100542.17;1721711;81;21267;-67
2021/07/24 08:54:56;;;;;;;5.15;1.70;;;;;;;44.88;12.53;100540.00;1740865;81;21140;-67
2021/07/24 08:57:33;;;;;;;3.33;1.47;;;;;;;44.69;12.58;100545.42;1728872;81;21878;-67
2021/07/24 09:00:12;;;;;;;6.62;1.50;;;;;;;44.37;12.90;100547.95;1728948;81;21315;-67
2021/07/24 09:02:48;;;;;;;3.10;1.60;;;;;;;43.89;13.05;100548.98;1751097;82;21183;-67
2021/07/24 09:05:21;;;;;;;6.70;1.70;;;;;;;43.57;13.49;100544.50;1722567;81;21302;-66
2021/07/24 09:07:55;;;;;;;3.60;1.52;;;;;;;43.43;13.91;100549.00;1734648;81;21284;-66
2021/07/24 09:10:29;;;;;;;3.52;1.50;;;;;;;43.44;13.47;100543.16;1741352;81;21307;-67
2021/07/24 09:13:01;;;;;;;9.75;2.12;;;;;;;43.27;13.64;100541.20;1747132;81;21727;-66
2021/07/24 09:15:35;;;;;;;2.92;1.62;;;;;;;42.82;13.76;100534.45;1727754;81;21232;-65
2021/07/24 09:18:09;;;;;;;3.98;1.52;;;;;;;41.96;14.45;100548.34;1744686;81;21298;-65
2021/07/24 09:20:42;;;;;;;3.85;1.70;;;;;;;41.03;15.48;100541.80;1750773;81;21181;-66
2021/07/24 09:23:30;;;;;;;3.17;1.95;;;;;;;40.50;15.83;100544.27;1747136;81;21227;-66
2021/07/24 09:26:06;;;;;;;4.12;1.62;;;;;;;40.14;16.05;100538.61;1740981;81;21356;-66
2021/07/24 09:28:39;;;;;;;5.90;1.95;;;;;;;40.04;16.30;100547.17;1748498;81;21837;-66
2021/07/24 09:31:22;;;;;;;4.62;1.57;;;;;;;39.95;15.99;100542.23;1723639;81;21184;-64
2021/07/24 09:33:55;;;;;;;4.80;1.72;;;;;;;39.83;16.56;100542.64;1744365;81;21259;-65
2021/07/24 09:36:33;;;;;;;3.22;1.77;;;;;;;39.65;16.51;100539.09;1738473;81;21326;-65
2021/07/24 09:39:15;;;;;;;2.17;1.55;;;;;;;39.42;16.66;100541.16;1750605;80;21318;-66
2021/07/24 09:41:49;;;;;;;2.15;1.70;;;;;;;39.23;16.98;100540.64;1745669;80;21318;-66
2021/07/24 09:44:32;;;;;;;6.28;1.70;;;;;;;39.04;17.21;100538.16;1750506;82;21271;-65
2021/07/24 09:47:08;;;;;;;4.25;1.98;;;;;;;38.69;17.51;100529.56;1740859;81;21189;-66
2021/07/24 09:49:41;;;;;;;4.50;1.82;;;;;;;38.39;18.02;100533.92;1750527;81;21843;-65
2021/07/24 09:52:17;;;;;;;3.83;1.95;;;;;;;38.18;18.30;100530.62;1739911;81;21295;-65
2021/07/24 09:54:50;;;;;;;5.97;1.92;;;;;;;37.97;18.57;100528.16;1722801;80;21261;-65
2021/07/24 09:57:36;;;;;;;4.80;1.82;;;;;;;37.78;18.41;100530.46;1750761;82;21169;-65
2021/07/24 10:00:29;;;;;;;5.12;1.90;;;;;;;37.50;18.80;100527.58;1750995;82;21224;-66
2021/07/24 10:03:06;;;;;;;3.00;1.65;;;;;;;37.23;19.32;100520.80;1740659;80;21196;-65
2021/07/24 10:05:42;;;;;;;5.58;2.05;;;;;;;36.89;20.08;100521.75;1740668;80;21256;-66
2021/07/24 10:08:16;;;;;;;6.05;1.87;;;;;;;36.43;20.28;100519.05;1742252;81;21330;-65
2021/07/24 10:10:51;;;;;;;3.87;1.90;;;;;;;36.04;20.64;100517.31;1750749;81;21204;-65
2021/07/24 10:13:24;;;;;;;3.83;1.98;;;;;;;35.67;20.97;100517.59;1736351;81;21362;-65
2021/07/24 10:15:58;;;;;;;6.75;1.77;;;;;;;35.37;21.52;100530.25;1721102;81;21179;-65
2021/07/24 10:18:31;;;;;;;6.60;1.98;;;;;;;35.14;21.17;100522.38;1730494;81;21335;-65
2021/07/24 10:21:04;;;;;;;;;;;;;;;35.01;21.46;100516.23;1745182;81;21225;-65
2021/07/24 10:23:36;;;;;;;4.05;1.98;;;;;;;34.99;21.55;100519.80;1735769;81;20644;-64
2021/07/24 10:26:20;;;;;;;;;;;;;;;34.99;22.45;100517.08;1733178;81;21280;-65
2021/07/24 10:29:04;;;;;;;3.42;1.87;;;;;;;35.01;22.41;100524.40;1744555;81;20225;-65
2021/07/24 10:32:04;;;;;;;4.22;1.87;;;;;;;35.05;22.36;100517.33;1728566;81;21240;-64
2021/07/24 10:34:48;;;;;;;3.80;1.85;;;;;;;35.04;22.20;100517.59;1699593;81;21346;-64
2021/07/24 10:37:42;;;;;;;4.95;1.90;;;;;;;34.92;22.28;100523.97;1719798;81;21287;-64
2021/07/24 10:40:30;;;;;;;2.62;1.70;;;;;;;34.92;22.37;100520.70;1749112;81;21834;-64
2021/07/24 10:42:56;;;;;;;8.40;2.30;;;;;;;34.88;21.87;100515.59;1763251;80;21296;-64
2021/07/24 10:45:45;;;;;;;;;;;;;;;34.71;22.31;100517.14;1788023;80;21318;-63
2021/07/24 10:48:27;;;;;;;4.58;1.85;;;;;;;34.50;23.15;100520.06;1785439;80;20162;-64
2021/07/24 10:51:01;;;;;;;7.72;2.40;;;;;;;34.38;23.58;100521.00;1782735;80;21223;-64
2021/07/24 10:53:55;;;;;;;4.92;2.15;;;;;;;34.28;22.79;100517.55;1758159;80;21287;-64
2021/07/24 10:56:37;;;;;;;;;;;;;;;34.13;22.66;100503.55;1756631;80;21301;-64
2021/07/24 10:59:21;;;;;;;3.98;1.95;;;;;;;33.98;23.16;100510.46;1780599;80;20746;-63
2021/07/24 11:01:58;;;;;;;8.38;2.10;;;;;;;33.86;24.06;100516.27;1774756;80;21326;-64
2021/07/24 11:04:41;;;;;;;8.95;2.20;;;;;;;33.76;24.06;100516.33;1782120;80;21235;-64
2021/07/24 11:07:25;;;;;;;11.75;2.40;;;;;;;33.67;23.77;100522.64;1778763;80;21275;-63
2021/07/24 11:10:07;;;;;;;6.12;2.50;;;;;;;33.53;23.92;100525.18;1784032;80;21282;-63
2021/07/24 11:12:41;;;;;;;4.97;2.20;;;;;;;33.34;24.20;100524.17;1769562;80;21335;-63
2021/07/24 11:15:23;;;;;;;4.60;2.20;;;;;;;33.13;23.63;100525.33;1783588;80;21282;-63
2021/07/24 11:18:23;;;;;;;4.87;2.02;;;;;;;32.88;23.00;100518.09;1775624;80;21862;-63
2021/07/24 11:20:57;;;;;;;2.85;2.00;;;;;;;32.71;24.05;100523.55;1781627;80;21287;-63
2021/07/24 11:23:30;;;;;;;2.65;2.00;;;;;;;32.59;24.86;100522.50;1771960;80;21306;-63
2021/07/24 11:26:06;;;;;;;4.83;1.95;;;;;;;32.48;24.61;100520.88;1764670;80;21909;-64
2021/07/24 11:28:44;;;;;;;3.62;2.17;;;;;;;32.38;25.08;100518.17;1762090;80;21212;-63
2021/07/24 11:31:19;;;;;;;6.17;2.33;;;;;;;32.29;24.96;100512.47;1757083;80;21162;-62
2021/07/24 11:33:52;;;;;;;3.55;2.00;;;;;;;32.21;24.85;100515.75;1780115;80;21224;-63
2021/07/24 11:36:27;;;;;;;5.87;2.15;;;;;;;32.19;25.29;100513.86;1779583;80;21281;-63
2021/07/24 11:39:01;;;;;;;3.20;2.17;;;;;;;32.24;25.01;100521.16;1782434;80;21371;-62
2021/07/24 11:41:34;;;;;;;5.97;2.45;;;;;;;32.27;25.39;100521.42;1772257;80;21216;-63
2021/07/24 11:44:07;;;;;;;4.67;2.35;;;;;;;32.23;24.77;100515.47;1778654;80;21177;-63
2021/07/24 11:46:39;;;;;;;;;;;;;;;32.10;24.81;100513.32;1780815;80;21282;-63
2021/07/24 11:49:12;;;;;;;7.62;2.40;;;;;;;32.05;24.89;100510.07;1766535;80;20230;-63
2021/07/24 11:51:48;;;;;;;8.00;2.10;;;;;;;32.04;25.38;100509.79;1760133;80;21279;-63
2021/07/24 11:54:35;;;;;;;4.53;2.02;;;;;;;32.04;24.91;100506.27;1779335;80;21168;-63
2021/07/24 11:57:08;;;;;;;4.20;1.92;;;;;;;31.95;25.44;100504.62;1780325;80;21272;-64
2021/07/24 11:59:42;;;;;;;4.65;2.15;;;;;;;31.95;25.75;100506.79;1757238;80;21321;-63
2021/07/24 12:02:19;;;;;;;8.35;1.92;;;;;;;31.96;25.93;100501.63;1766423;80;21203;-64